sensor_id;sensor_type;location;lat;lon;timestamp;P1;durP1;ratioP1;P2;durP2;ratioP2
13981;SDS011;7065;50.880;5.502;2023-05-29T00:01:15;6.80;;;5.25;;
13981;SDS011;7065;50.880;5.502;2023-05-29T00:03:43;11.43;;;5.22;;
13981;SDS011;7065;50.880;5.502;2023-05-29T00:06:09;8.60;;;5.18;;
13981;SDS011;7065;50.880;5.502;2023-05-29T00:08:35;10.35;;;5.18;;
13981;SDS011;7065;50.880;5.502;2023-05-29T00:11:01;8.77;;;5.38;;
13981;SDS011;7065;50.880;5.502;2023-05-29T00:13:27;7.72;;;5.63;;
13981;SDS011;7065;50.880;5.502;2023-05-29T00:15:53;8.23;;;5.32;;
13981;SDS011;7065;50.880;5.502;2023-05-29T00:18:19;8.23;;;5.07;;
13981;SDS011;7065;50.880;5.502;2023-05-29T00:20:44;7.10;;;5.03;;
13981;SDS011;7065;50.880;5.502;2023-05-29T00:23:10;7.88;;;4.95;;
13981;SDS011;7065;50.880;5.502;2023-05-29T00:25:36;8.90;;;5.72;;
13981;SDS011;7065;50.880;5.502;2023-05-29T00:28:01;8.00;;;5.22;;
13981;SDS011;7065;50.880;5.502;2023-05-29T00:30:27;9.52;;;5.20;;
13981;SDS011;7065;50.880;5.502;2023-05-29T00:32:53;7.80;;;5.10;;
13981;SDS011;7065;50.880;5.502;2023-05-29T00:35:19;7.32;;;5.93;;
13981;SDS011;7065;50.880;5.502;2023-05-29T00:37:45;8.75;;;5.55;;
13981;SDS011;7065;50.880;5.502;2023-05-29T00:40:11;11.48;;;5.45;;
13981;SDS011;7065;50.880;5.502;2023-05-29T00:42:37;9.30;;;5.60;;
13981;SDS011;7065;50.880;5.502;2023-05-29T00:45:03;12.95;;;6.40;;
13981;SDS011;7065;50.880;5.502;2023-05-29T00:47:29;8.20;;;5.80;;
13981;SDS011;7065;50.880;5.502;2023-05-29T00:49:55;7.60;;;5.50;;
13981;SDS011;7065;50.880;5.502;2023-05-29T00:52:22;7.75;;;5.90;;
13981;SDS011;7065;50.880;5.502;2023-05-29T00:54:50;11.80;;;6.13;;
13981;SDS011;7065;50.880;5.502;2023-05-29T00:57:17;10.60;;;6.07;;
13981;SDS011;7065;50.880;5.502;2023-05-29T00:59:43;10.43;;;5.80;;
13981;SDS011;7065;50.880;5.502;2023-05-29T01:02:10;9.85;;;6.00;;
13981;SDS011;7065;50.880;5.502;2023-05-29T01:04:37;8.15;;;6.40;;
13981;SDS011;7065;50.880;5.502;2023-05-29T01:07:04;7.95;;;5.88;;
13981;SDS011;7065;50.880;5.502;2023-05-29T01:09:30;10.00;;;5.88;;
13981;SDS011;7065;50.880;5.502;2023-05-29T01:20:43;9.75;;;7.28;;
13981;SDS011;7065;50.880;5.502;2023-05-29T01:23:34;9.68;;;6.15;;
13981;SDS011;7065;50.880;5.502;2023-05-29T01:29:26;11.00;;;7.25;;
13981;SDS011;7065;50.880;5.502;2023-05-29T01:31:56;9.43;;;6.63;;
13981;SDS011;7065;50.880;5.502;2023-05-29T01:34:23;9.50;;;7.22;;
13981;SDS011;7065;50.880;5.502;2023-05-29T01:36:49;10.63;;;6.70;;
13981;SDS011;7065;50.880;5.502;2023-05-29T01:39:15;8.88;;;7.00;;
13981;SDS011;7065;50.880;5.502;2023-05-29T01:41:42;11.40;;;7.18;;
13981;SDS011;7065;50.880;5.502;2023-05-29T01:44:10;13.07;;;6.72;;
13981;SDS011;7065;50.880;5.502;2023-05-29T01:46:37;9.93;;;7.47;;
13981;SDS011;7065;50.880;5.502;2023-05-29T01:49:04;13.10;;;8.00;;
13981;SDS011;7065;50.880;5.502;2023-05-29T01:51:30;12.02;;;7.93;;
13981;SDS011;7065;50.880;5.502;2023-05-29T01:53:57;12.38;;;8.35;;
13981;SDS011;7065;50.880;5.502;2023-05-29T01:56:25;9.82;;;7.80;;
13981;SDS011;7065;50.880;5.502;2023-05-29T01:58:55;12.45;;;7.88;;
13981;SDS011;7065;50.880;5.502;2023-05-29T02:01:21;12.82;;;8.48;;
13981;SDS011;7065;50.880;5.502;2023-05-29T02:03:48;11.57;;;9.00;;
13981;SDS011;7065;50.880;5.502;2023-05-29T02:06:14;12.00;;;8.32;;
13981;SDS011;7065;50.880;5.502;2023-05-29T02:08:40;11.80;;;8.75;;
13981;SDS011;7065;50.880;5.502;2023-05-29T02:11:06;14.23;;;8.55;;
13981;SDS011;7065;50.880;5.502;2023-05-29T02:13:31;13.00;;;8.73;;
13981;SDS011;7065;50.880;5.502;2023-05-29T02:15:58;13.15;;;8.57;;
13981;SDS011;7065;50.880;5.502;2023-05-29T02:18:23;14.23;;;8.88;;
13981;SDS011;7065;50.880;5.502;2023-05-29T02:20:50;14.57;;;9.32;;
13981;SDS011;7065;50.880;5.502;2023-05-29T02:23:16;17.10;;;9.50;;
13981;SDS011;7065;50.880;5.502;2023-05-29T02:25:42;14.77;;;9.85;;
13981;SDS011;7065;50.880;5.502;2023-05-29T02:28:08;14.18;;;10.05;;
13981;SDS011;7065;50.880;5.502;2023-05-29T02:30:34;13.95;;;9.57;;
13981;SDS011;7065;50.880;5.502;2023-05-29T02:33:00;16.17;;;9.30;;
13981;SDS011;7065;50.880;5.502;2023-05-29T02:35:26;15.55;;;9.98;;
13981;SDS011;7065;50.880;5.502;2023-05-29T02:37:51;13.63;;;9.27;;
13981;SDS011;7065;50.880;5.502;2023-05-29T02:40:18;16.08;;;9.75;;
13981;SDS011;7065;50.880;5.502;2023-05-29T02:42:44;15.48;;;9.88;;
13981;SDS011;7065;50.880;5.502;2023-05-29T02:45:10;14.65;;;9.43;;
13981;SDS011;7065;50.880;5.502;2023-05-29T02:47:36;14.57;;;9.07;;
13981;SDS011;7065;50.880;5.502;2023-05-29T02:50:02;13.18;;;8.77;;
13981;SDS011;7065;50.880;5.502;2023-05-29T02:52:29;15.93;;;9.80;;
13981;SDS011;7065;50.880;5.502;2023-05-29T02:54:58;17.58;;;9.05;;
13981;SDS011;7065;50.880;5.502;2023-05-29T02:57:24;15.23;;;8.68;;
13981;SDS011;7065;50.880;5.502;2023-05-29T02:59:50;14.18;;;8.50;;
13981;SDS011;7065;50.880;5.502;2023-05-29T03:02:17;12.65;;;7.80;;
13981;SDS011;7065;50.880;5.502;2023-05-29T03:04:44;13.20;;;7.97;;
13981;SDS011;7065;50.880;5.502;2023-05-29T03:07:10;13.30;;;8.48;;
13981;SDS011;7065;50.880;5.502;2023-05-29T03:09:35;15.80;;;8.48;;
13981;SDS011;7065;50.880;5.502;2023-05-29T03:12:01;14.35;;;7.82;;
13981;SDS011;7065;50.880;5.502;2023-05-29T03:14:28;14.98;;;7.72;;
13981;SDS011;7065;50.880;5.502;2023-05-29T03:16:54;11.85;;;7.13;;
13981;SDS011;7065;50.880;5.502;2023-05-29T03:19:21;13.73;;;7.05;;
13981;SDS011;7065;50.880;5.502;2023-05-29T03:21:47;13.98;;;6.82;;
13981;SDS011;7065;50.880;5.502;2023-05-29T03:24:12;12.52;;;7.07;;
13981;SDS011;7065;50.880;5.502;2023-05-29T03:26:38;14.50;;;6.68;;
13981;SDS011;7065;50.880;5.502;2023-05-29T03:29:04;15.02;;;6.78;;
13981;SDS011;7065;50.880;5.502;2023-05-29T03:31:30;13.40;;;6.05;;
13981;SDS011;7065;50.880;5.502;2023-05-29T03:33:56;13.20;;;6.53;;
13981;SDS011;7065;50.880;5.502;2023-05-29T03:36:23;12.45;;;6.40;;
13981;SDS011;7065;50.880;5.502;2023-05-29T03:38:49;10.30;;;5.68;;
13981;SDS011;7065;50.880;5.502;2023-05-29T03:41:15;13.35;;;5.97;;
13981;SDS011;7065;50.880;5.502;2023-05-29T03:43:41;14.00;;;5.85;;
13981;SDS011;7065;50.880;5.502;2023-05-29T03:46:06;12.65;;;5.32;;
13981;SDS011;7065;50.880;5.502;2023-05-29T03:48:32;16.27;;;5.47;;
13981;SDS011;7065;50.880;5.502;2023-05-29T03:50:58;11.70;;;5.00;;
13981;SDS011;7065;50.880;5.502;2023-05-29T03:53:23;12.20;;;5.75;;
13981;SDS011;7065;50.880;5.502;2023-05-29T03:55:49;13.80;;;5.25;;
13981;SDS011;7065;50.880;5.502;2023-05-29T03:58:15;11.85;;;5.18;;
13981;SDS011;7065;50.880;5.502;2023-05-29T04:00:40;12.70;;;4.88;;
13981;SDS011;7065;50.880;5.502;2023-05-29T04:03:06;14.90;;;5.68;;
13981;SDS011;7065;50.880;5.502;2023-05-29T04:05:33;10.80;;;4.90;;
13981;SDS011;7065;50.880;5.502;2023-05-29T04:07:58;10.45;;;4.50;;
13981;SDS011;7065;50.880;5.502;2023-05-29T04:10:24;11.63;;;4.60;;
13981;SDS011;7065;50.880;5.502;2023-05-29T04:12:50;12.57;;;5.25;;
13981;SDS011;7065;50.880;5.502;2023-05-29T04:15:17;9.30;;;4.07;;
13981;SDS011;7065;50.880;5.502;2023-05-29T04:17:43;12.73;;;4.78;;
13981;SDS011;7065;50.880;5.502;2023-05-29T04:20:08;12.70;;;4.35;;
13981;SDS011;7065;50.880;5.502;2023-05-29T04:22:38;11.63;;;4.30;;
13981;SDS011;7065;50.880;5.502;2023-05-29T04:25:04;14.30;;;4.35;;
13981;SDS011;7065;50.880;5.502;2023-05-29T04:27:30;9.73;;;3.80;;
13981;SDS011;7065;50.880;5.502;2023-05-29T04:29:57;13.02;;;4.40;;
13981;SDS011;7065;50.880;5.502;2023-05-29T04:32:23;8.88;;;4.15;;
13981;SDS011;7065;50.880;5.502;2023-05-29T04:34:49;10.68;;;4.95;;
13981;SDS011;7065;50.880;5.502;2023-05-29T04:37:16;11.73;;;4.13;;
13981;SDS011;7065;50.880;5.502;2023-05-29T04:39:42;14.30;;;4.13;;
13981;SDS011;7065;50.880;5.502;2023-05-29T04:42:08;8.75;;;3.88;;
13981;SDS011;7065;50.880;5.502;2023-05-29T04:44:34;9.77;;;3.92;;
13981;SDS011;7065;50.880;5.502;2023-05-29T04:47:00;13.50;;;4.28;;
13981;SDS011;7065;50.880;5.502;2023-05-29T04:49:28;11.57;;;3.92;;
13981;SDS011;7065;50.880;5.502;2023-05-29T04:51:54;9.90;;;3.97;;
13981;SDS011;7065;50.880;5.502;2023-05-29T04:54:21;11.00;;;4.13;;
13981;SDS011;7065;50.880;5.502;2023-05-29T04:56:48;14.00;;;4.15;;
13981;SDS011;7065;50.880;5.502;2023-05-29T04:59:14;12.95;;;4.50;;
13981;SDS011;7065;50.880;5.502;2023-05-29T05:01:40;12.52;;;3.90;;
13981;SDS011;7065;50.880;5.502;2023-05-29T05:04:09;15.38;;;4.05;;
13981;SDS011;7065;50.880;5.502;2023-05-29T05:06:35;15.88;;;4.45;;
13981;SDS011;7065;50.880;5.502;2023-05-29T05:09:00;12.15;;;4.03;;
13981;SDS011;7065;50.880;5.502;2023-05-29T05:11:26;9.73;;;3.85;;
13981;SDS011;7065;50.880;5.502;2023-05-29T05:13:52;12.60;;;3.97;;
13981;SDS011;7065;50.880;5.502;2023-05-29T05:16:17;15.02;;;3.88;;
13981;SDS011;7065;50.880;5.502;2023-05-29T05:18:44;10.40;;;4.32;;
13981;SDS011;7065;50.880;5.502;2023-05-29T05:21:10;12.30;;;4.47;;
13981;SDS011;7065;50.880;5.502;2023-05-29T05:23:36;12.55;;;3.63;;
13981;SDS011;7065;50.880;5.502;2023-05-29T05:26:02;10.10;;;3.80;;
13981;SDS011;7065;50.880;5.502;2023-05-29T05:28:28;16.80;;;4.43;;
13981;SDS011;7065;50.880;5.502;2023-05-29T05:30:53;14.70;;;4.53;;
13981;SDS011;7065;50.880;5.502;2023-05-29T05:33:19;14.10;;;4.03;;
13981;SDS011;7065;50.880;5.502;2023-05-29T05:35:46;11.43;;;3.75;;
13981;SDS011;7065;50.880;5.502;2023-05-29T05:38:11;14.52;;;3.97;;
13981;SDS011;7065;50.880;5.502;2023-05-29T05:40:37;15.18;;;4.03;;
13981;SDS011;7065;50.880;5.502;2023-05-29T05:43:03;13.35;;;3.75;;
13981;SDS011;7065;50.880;5.502;2023-05-29T05:45:29;12.45;;;4.20;;
13981;SDS011;7065;50.880;5.502;2023-05-29T05:47:56;12.55;;;4.53;;
13981;SDS011;7065;50.880;5.502;2023-05-29T05:50:21;13.25;;;3.80;;
13981;SDS011;7065;50.880;5.502;2023-05-29T05:52:47;10.68;;;4.03;;
13981;SDS011;7065;50.880;5.502;2023-05-29T05:55:13;9.98;;;3.80;;
13981;SDS011;7065;50.880;5.502;2023-05-29T05:57:39;14.82;;;4.00;;
13981;SDS011;7065;50.880;5.502;2023-05-29T06:00:05;9.20;;;3.53;;
13981;SDS011;7065;50.880;5.502;2023-05-29T06:02:37;15.93;;;4.18;;
13981;SDS011;7065;50.880;5.502;2023-05-29T06:05:03;13.57;;;3.70;;
13981;SDS011;7065;50.880;5.502;2023-05-29T06:07:32;14.70;;;3.97;;
13981;SDS011;7065;50.880;5.502;2023-05-29T06:09:58;13.82;;;4.10;;
13981;SDS011;7065;50.880;5.502;2023-05-29T06:12:23;13.27;;;4.03;;
13981;SDS011;7065;50.880;5.502;2023-05-29T06:14:50;12.35;;;4.57;;
13981;SDS011;7065;50.880;5.502;2023-05-29T06:17:15;11.70;;;3.72;;
13981;SDS011;7065;50.880;5.502;2023-05-29T06:19:41;10.68;;;3.90;;
13981;SDS011;7065;50.880;5.502;2023-05-29T06:22:07;10.05;;;3.60;;
13981;SDS011;7065;50.880;5.502;2023-05-29T06:24:32;12.20;;;4.00;;
13981;SDS011;7065;50.880;5.502;2023-05-29T06:26:58;14.40;;;3.72;;
13981;SDS011;7065;50.880;5.502;2023-05-29T06:29:24;21.00;;;4.30;;
13981;SDS011;7065;50.880;5.502;2023-05-29T06:31:50;12.25;;;4.05;;
13981;SDS011;7065;50.880;5.502;2023-05-29T06:34:16;12.73;;;3.60;;
13981;SDS011;7065;50.880;5.502;2023-05-29T06:36:41;15.18;;;4.15;;
13981;SDS011;7065;50.880;5.502;2023-05-29T06:39:08;11.98;;;3.95;;
13981;SDS011;7065;50.880;5.502;2023-05-29T06:41:35;11.30;;;4.13;;
13981;SDS011;7065;50.880;5.502;2023-05-29T06:44:01;12.00;;;4.13;;
13981;SDS011;7065;50.880;5.502;2023-05-29T06:46:26;16.77;;;3.92;;
13981;SDS011;7065;50.880;5.502;2023-05-29T06:48:52;12.45;;;4.25;;
13981;SDS011;7065;50.880;5.502;2023-05-29T06:51:18;14.93;;;4.00;;
13981;SDS011;7065;50.880;5.502;2023-05-29T06:53:43;10.50;;;3.63;;
13981;SDS011;7065;50.880;5.502;2023-05-29T06:56:10;10.90;;;3.38;;
13981;SDS011;7065;50.880;5.502;2023-05-29T06:58:36;11.57;;;3.83;;
13981;SDS011;7065;50.880;5.502;2023-05-29T07:01:01;18.23;;;4.45;;
13981;SDS011;7065;50.880;5.502;2023-05-29T07:03:27;10.57;;;3.80;;
13981;SDS011;7065;50.880;5.502;2023-05-29T07:05:53;11.77;;;3.88;;
13981;SDS011;7065;50.880;5.502;2023-05-29T07:08:19;13.02;;;3.90;;
13981;SDS011;7065;50.880;5.502;2023-05-29T07:10:45;12.30;;;3.60;;
13981;SDS011;7065;50.880;5.502;2023-05-29T07:13:17;16.75;;;4.22;;
13981;SDS011;7065;50.880;5.502;2023-05-29T07:15:43;14.45;;;4.22;;
13981;SDS011;7065;50.880;5.502;2023-05-29T07:18:09;10.02;;;3.35;;
13981;SDS011;7065;50.880;5.502;2023-05-29T07:20:38;13.63;;;4.45;;
13981;SDS011;7065;50.880;5.502;2023-05-29T07:23:03;9.38;;;3.40;;
13981;SDS011;7065;50.880;5.502;2023-05-29T07:25:29;12.10;;;3.75;;
13981;SDS011;7065;50.880;5.502;2023-05-29T07:27:56;11.18;;;3.65;;
13981;SDS011;7065;50.880;5.502;2023-05-29T07:30:22;11.30;;;3.70;;
13981;SDS011;7065;50.880;5.502;2023-05-29T07:32:48;11.70;;;3.90;;
13981;SDS011;7065;50.880;5.502;2023-05-29T07:35:14;12.68;;;4.22;;
13981;SDS011;7065;50.880;5.502;2023-05-29T07:37:40;11.18;;;3.67;;
13981;SDS011;7065;50.880;5.502;2023-05-29T07:40:06;11.40;;;3.92;;
13981;SDS011;7065;50.880;5.502;2023-05-29T07:42:33;13.93;;;5.13;;
13981;SDS011;7065;50.880;5.502;2023-05-29T07:44:59;15.05;;;3.67;;
13981;SDS011;7065;50.880;5.502;2023-05-29T07:47:25;12.35;;;3.78;;
13981;SDS011;7065;50.880;5.502;2023-05-29T07:49:50;13.98;;;3.95;;
13981;SDS011;7065;50.880;5.502;2023-05-29T07:52:17;13.20;;;3.78;;
13981;SDS011;7065;50.880;5.502;2023-05-29T07:54:43;14.18;;;4.32;;
13981;SDS011;7065;50.880;5.502;2023-05-29T07:57:09;10.27;;;3.38;;
13981;SDS011;7065;50.880;5.502;2023-05-29T07:59:35;10.73;;;3.92;;
13981;SDS011;7065;50.880;5.502;2023-05-29T08:02:01;11.20;;;4.28;;
13981;SDS011;7065;50.880;5.502;2023-05-29T08:04:30;8.38;;;3.10;;
13981;SDS011;7065;50.880;5.502;2023-05-29T08:06:55;7.88;;;3.83;;
13981;SDS011;7065;50.880;5.502;2023-05-29T08:09:21;10.30;;;3.22;;
13981;SDS011;7065;50.880;5.502;2023-05-29T08:11:47;10.48;;;3.70;;
13981;SDS011;7065;50.880;5.502;2023-05-29T08:14:15;10.15;;;3.83;;
13981;SDS011;7065;50.880;5.502;2023-05-29T08:16:42;13.55;;;3.78;;
13981;SDS011;7065;50.880;5.502;2023-05-29T08:19:08;11.25;;;3.70;;
13981;SDS011;7065;50.880;5.502;2023-05-29T08:21:33;14.05;;;3.90;;
13981;SDS011;7065;50.880;5.502;2023-05-29T08:23:59;9.68;;;3.90;;
13981;SDS011;7065;50.880;5.502;2023-05-29T08:26:27;10.52;;;4.10;;
13981;SDS011;7065;50.880;5.502;2023-05-29T08:28:52;11.70;;;3.92;;
13981;SDS011;7065;50.880;5.502;2023-05-29T08:31:19;15.55;;;3.88;;
13981;SDS011;7065;50.880;5.502;2023-05-29T08:33:45;11.23;;;3.90;;
13981;SDS011;7065;50.880;5.502;2023-05-29T08:36:11;7.88;;;3.78;;
13981;SDS011;7065;50.880;5.502;2023-05-29T08:38:37;12.75;;;4.10;;
13981;SDS011;7065;50.880;5.502;2023-05-29T08:41:02;11.00;;;3.65;;
13981;SDS011;7065;50.880;5.502;2023-05-29T08:43:32;9.77;;;3.75;;
13981;SDS011;7065;50.880;5.502;2023-05-29T08:46:01;12.85;;;4.15;;
13981;SDS011;7065;50.880;5.502;2023-05-29T08:48:28;10.18;;;3.70;;
13981;SDS011;7065;50.880;5.502;2023-05-29T08:50:56;9.80;;;3.90;;
13981;SDS011;7065;50.880;5.502;2023-05-29T08:53:23;10.52;;;3.85;;
13981;SDS011;7065;50.880;5.502;2023-05-29T08:55:51;13.23;;;3.95;;
13981;SDS011;7065;50.880;5.502;2023-05-29T08:58:20;10.98;;;4.13;;
13981;SDS011;7065;50.880;5.502;2023-05-29T09:00:47;9.68;;;4.05;;
13981;SDS011;7065;50.880;5.502;2023-05-29T09:03:13;8.07;;;3.80;;
13981;SDS011;7065;50.880;5.502;2023-05-29T09:05:39;8.68;;;3.80;;
13981;SDS011;7065;50.880;5.502;2023-05-29T09:08:09;12.13;;;3.63;;
13981;SDS011;7065;50.880;5.502;2023-05-29T09:10:37;8.48;;;3.35;;
13981;SDS011;7065;50.880;5.502;2023-05-29T09:13:12;11.32;;;3.50;;
13981;SDS011;7065;50.880;5.502;2023-05-29T09:15:38;11.93;;;3.80;;
13981;SDS011;7065;50.880;5.502;2023-05-29T09:18:07;14.00;;;4.40;;
13981;SDS011;7065;50.880;5.502;2023-05-29T09:20:34;9.48;;;4.00;;
13981;SDS011;7065;50.880;5.502;2023-05-29T09:23:00;8.25;;;3.90;;
13981;SDS011;7065;50.880;5.502;2023-05-29T09:25:29;10.40;;;3.97;;
13981;SDS011;7065;50.880;5.502;2023-05-29T09:27:58;7.60;;;3.47;;
13981;SDS011;7065;50.880;5.502;2023-05-29T09:30:37;9.10;;;3.45;;
13981;SDS011;7065;50.880;5.502;2023-05-29T09:33:11;11.95;;;4.53;;
13981;SDS011;7065;50.880;5.502;2023-05-29T09:35:45;12.80;;;3.50;;
13981;SDS011;7065;50.880;5.502;2023-05-29T09:38:20;10.35;;;3.25;;
13981;SDS011;7065;50.880;5.502;2023-05-29T09:40:46;10.27;;;3.97;;
13981;SDS011;7065;50.880;5.502;2023-05-29T09:43:13;10.38;;;4.68;;
13981;SDS011;7065;50.880;5.502;2023-05-29T09:45:42;10.55;;;4.13;;
13981;SDS011;7065;50.880;5.502;2023-05-29T09:48:13;11.15;;;3.75;;
13981;SDS011;7065;50.880;5.502;2023-05-29T09:50:40;11.70;;;4.10;;
13981;SDS011;7065;50.880;5.502;2023-05-29T09:53:21;14.68;;;4.30;;
13981;SDS011;7065;50.880;5.502;2023-05-29T09:55:54;13.27;;;3.92;;
13981;SDS011;7065;50.880;5.502;2023-05-29T09:58:21;14.25;;;4.63;;
13981;SDS011;7065;50.880;5.502;2023-05-29T10:00:48;12.93;;;3.67;;
13981;SDS011;7065;50.880;5.502;2023-05-29T10:03:14;13.75;;;3.97;;
13981;SDS011;7065;50.880;5.502;2023-05-29T10:05:42;8.23;;;4.22;;
13981;SDS011;7065;50.880;5.502;2023-05-29T10:08:13;9.38;;;4.20;;
13981;SDS011;7065;50.880;5.502;2023-05-29T10:10:40;12.15;;;3.83;;
13981;SDS011;7065;50.880;5.502;2023-05-29T10:13:10;11.38;;;3.90;;
13981;SDS011;7065;50.880;5.502;2023-05-29T10:15:37;10.07;;;4.03;;
13981;SDS011;7065;50.880;5.502;2023-05-29T10:18:05;11.13;;;3.60;;
13981;SDS011;7065;50.880;5.502;2023-05-29T10:20:38;7.55;;;3.13;;
13981;SDS011;7065;50.880;5.502;2023-05-29T10:23:05;11.13;;;3.53;;
13981;SDS011;7065;50.880;5.502;2023-05-29T10:25:32;11.95;;;3.97;;
13981;SDS011;7065;50.880;5.502;2023-05-29T10:28:00;9.85;;;3.40;;
13981;SDS011;7065;50.880;5.502;2023-05-29T10:30:41;11.52;;;3.75;;
13981;SDS011;7065;50.880;5.502;2023-05-29T10:38:28;12.43;;;4.18;;
13981;SDS011;7065;50.880;5.502;2023-05-29T10:40:54;10.13;;;3.92;;
13981;SDS011;7065;50.880;5.502;2023-05-29T10:45:57;8.80;;;3.10;;
13981;SDS011;7065;50.880;5.502;2023-05-29T10:50:53;10.38;;;3.75;;
13981;SDS011;7065;50.880;5.502;2023-05-29T10:53:23;10.35;;;3.40;;
13981;SDS011;7065;50.880;5.502;2023-05-29T10:55:56;9.98;;;3.63;;
13981;SDS011;7065;50.880;5.502;2023-05-29T10:58:25;10.63;;;4.20;;
13981;SDS011;7065;50.880;5.502;2023-05-29T11:00:54;10.75;;;3.55;;
13981;SDS011;7065;50.880;5.502;2023-05-29T11:03:22;13.50;;;3.65;;
13981;SDS011;7065;50.880;5.502;2023-05-29T11:11:14;10.38;;;3.70;;
13981;SDS011;7065;50.880;5.502;2023-05-29T11:13:54;8.15;;;3.42;;
13981;SDS011;7065;50.880;5.502;2023-05-29T11:18:50;10.13;;;3.53;;
13981;SDS011;7065;50.880;5.502;2023-05-29T11:23:58;9.43;;;3.25;;
13981;SDS011;7065;50.880;5.502;2023-05-29T11:26:28;7.97;;;3.47;;
13981;SDS011;7065;50.880;5.502;2023-05-29T11:29:04;8.77;;;3.33;;
13981;SDS011;7065;50.880;5.502;2023-05-29T11:31:32;7.72;;;3.53;;
13981;SDS011;7065;50.880;5.502;2023-05-29T11:33:59;10.02;;;3.70;;
13981;SDS011;7065;50.880;5.502;2023-05-29T11:36:29;7.25;;;2.88;;
13981;SDS011;7065;50.880;5.502;2023-05-29T11:38:56;10.68;;;3.10;;
13981;SDS011;7065;50.880;5.502;2023-05-29T11:41:22;8.68;;;2.85;;
13981;SDS011;7065;50.880;5.502;2023-05-29T11:46:23;9.80;;;3.00;;
13981;SDS011;7065;50.880;5.502;2023-05-29T11:48:51;7.68;;;3.05;;
13981;SDS011;7065;50.880;5.502;2023-05-29T11:51:17;7.72;;;3.40;;
13981;SDS011;7065;50.880;5.502;2023-05-29T11:53:43;11.20;;;3.22;;
13981;SDS011;7065;50.880;5.502;2023-05-29T11:56:12;6.43;;;2.63;;
13981;SDS011;7065;50.880;5.502;2023-05-29T11:58:38;10.13;;;3.53;;
13981;SDS011;7065;50.880;5.502;2023-05-29T12:01:05;7.93;;;3.10;;
13981;SDS011;7065;50.880;5.502;2023-05-29T12:03:42;9.18;;;3.67;;
13981;SDS011;7065;50.880;5.502;2023-05-29T12:06:08;9.00;;;2.95;;
13981;SDS011;7065;50.880;5.502;2023-05-29T12:08:37;8.23;;;3.38;;
13981;SDS011;7065;50.880;5.502;2023-05-29T12:11:04;8.40;;;2.90;;
13981;SDS011;7065;50.880;5.502;2023-05-29T12:13:30;6.88;;;3.35;;
13981;SDS011;7065;50.880;5.502;2023-05-29T12:15:57;8.48;;;3.08;;
13981;SDS011;7065;50.880;5.502;2023-05-29T12:18:28;8.80;;;3.40;;
13981;SDS011;7065;50.880;5.502;2023-05-29T12:20:59;10.57;;;3.38;;
13981;SDS011;7065;50.880;5.502;2023-05-29T12:23:26;6.65;;;3.38;;
13981;SDS011;7065;50.880;5.502;2023-05-29T12:25:54;8.15;;;3.33;;
13981;SDS011;7065;50.880;5.502;2023-05-29T12:28:20;6.35;;;3.53;;
13981;SDS011;7065;50.880;5.502;2023-05-29T12:30:46;6.47;;;2.78;;
13981;SDS011;7065;50.880;5.502;2023-05-29T12:33:24;7.57;;;3.10;;
13981;SDS011;7065;50.880;5.502;2023-05-29T12:35:54;7.35;;;3.28;;
13981;SDS011;7065;50.880;5.502;2023-05-29T12:38:20;8.75;;;3.03;;
13981;SDS011;7065;50.880;5.502;2023-05-29T12:40:48;9.27;;;3.45;;
13981;SDS011;7065;50.880;5.502;2023-05-29T12:43:15;6.80;;;3.47;;
13981;SDS011;7065;50.880;5.502;2023-05-29T12:45:41;7.50;;;3.17;;
13981;SDS011;7065;50.880;5.502;2023-05-29T12:48:07;8.38;;;3.20;;
13981;SDS011;7065;50.880;5.502;2023-05-29T12:50:35;8.05;;;2.97;;
13981;SDS011;7065;50.880;5.502;2023-05-29T12:53:08;7.40;;;2.90;;
13981;SDS011;7065;50.880;5.502;2023-05-29T12:55:40;6.90;;;3.17;;
13981;SDS011;7065;50.880;5.502;2023-05-29T12:58:10;9.10;;;3.08;;
13981;SDS011;7065;50.880;5.502;2023-05-29T13:00:38;7.90;;;3.30;;
13981;SDS011;7065;50.880;5.502;2023-05-29T13:03:05;11.35;;;3.33;;
13981;SDS011;7065;50.880;5.502;2023-05-29T13:05:31;6.82;;;2.85;;
13981;SDS011;7065;50.880;5.502;2023-05-29T13:07:57;11.15;;;3.55;;
13981;SDS011;7065;50.880;5.502;2023-05-29T13:10:23;8.82;;;2.67;;
13981;SDS011;7065;50.880;5.502;2023-05-29T13:12:50;8.98;;;3.25;;
13981;SDS011;7065;50.880;5.502;2023-05-29T13:15:19;7.07;;;3.30;;
13981;SDS011;7065;50.880;5.502;2023-05-29T13:17:48;8.68;;;3.17;;
13981;SDS011;7065;50.880;5.502;2023-05-29T13:20:14;8.85;;;3.53;;
13981;SDS011;7065;50.880;5.502;2023-05-29T13:22:41;8.05;;;3.40;;
13981;SDS011;7065;50.880;5.502;2023-05-29T13:25:09;6.32;;;2.65;;
13981;SDS011;7065;50.880;5.502;2023-05-29T13:27:36;7.07;;;3.20;;
13981;SDS011;7065;50.880;5.502;2023-05-29T13:30:04;8.70;;;2.85;;
13981;SDS011;7065;50.880;5.502;2023-05-29T13:32:30;10.23;;;3.22;;
13981;SDS011;7065;50.880;5.502;2023-05-29T13:34:56;5.68;;;2.90;;
13981;SDS011;7065;50.880;5.502;2023-05-29T13:37:22;9.50;;;3.35;;
13981;SDS011;7065;50.880;5.502;2023-05-29T13:39:48;6.50;;;2.65;;
13981;SDS011;7065;50.880;5.502;2023-05-29T13:42:15;7.28;;;3.20;;
13981;SDS011;7065;50.880;5.502;2023-05-29T13:44:41;11.50;;;3.20;;
13981;SDS011;7065;50.880;5.502;2023-05-29T13:47:07;6.15;;;2.40;;
13981;SDS011;7065;50.880;5.502;2023-05-29T13:49:33;6.90;;;3.08;;
13981;SDS011;7065;50.880;5.502;2023-05-29T13:51:59;8.45;;;2.47;;
13981;SDS011;7065;50.880;5.502;2023-05-29T13:54:25;6.78;;;2.40;;
13981;SDS011;7065;50.880;5.502;2023-05-29T13:56:54;9.70;;;2.70;;
13981;SDS011;7065;50.880;5.502;2023-05-29T13:59:21;5.90;;;2.83;;
13981;SDS011;7065;50.880;5.502;2023-05-29T14:01:47;10.27;;;3.20;;
13981;SDS011;7065;50.880;5.502;2023-05-29T14:04:13;5.15;;;2.15;;
13981;SDS011;7065;50.880;5.502;2023-05-29T14:06:38;5.43;;;2.47;;
13981;SDS011;7065;50.880;5.502;2023-05-29T14:09:05;9.20;;;2.55;;
13981;SDS011;7065;50.880;5.502;2023-05-29T14:11:34;5.85;;;2.80;;
13981;SDS011;7065;50.880;5.502;2023-05-29T14:14:02;8.38;;;2.63;;
13981;SDS011;7065;50.880;5.502;2023-05-29T14:16:32;7.25;;;2.70;;
13981;SDS011;7065;50.880;5.502;2023-05-29T14:18:58;9.07;;;3.50;;
13981;SDS011;7065;50.880;5.502;2023-05-29T14:21:24;5.72;;;2.78;;
13981;SDS011;7065;50.880;5.502;2023-05-29T14:23:50;7.28;;;2.83;;
13981;SDS011;7065;50.880;5.502;2023-05-29T14:26:16;7.10;;;2.80;;
13981;SDS011;7065;50.880;5.502;2023-05-29T14:28:41;6.97;;;2.80;;
13981;SDS011;7065;50.880;5.502;2023-05-29T14:31:08;5.60;;;2.50;;
13981;SDS011;7065;50.880;5.502;2023-05-29T14:33:33;7.95;;;2.55;;
13981;SDS011;7065;50.880;5.502;2023-05-29T14:36:01;4.53;;;2.70;;
13981;SDS011;7065;50.880;5.502;2023-05-29T14:38:26;5.93;;;2.80;;
13981;SDS011;7065;50.880;5.502;2023-05-29T14:40:52;5.97;;;2.72;;
13981;SDS011;7065;50.880;5.502;2023-05-29T14:43:18;8.15;;;3.20;;
13981;SDS011;7065;50.880;5.502;2023-05-29T14:45:43;9.88;;;3.00;;
13981;SDS011;7065;50.880;5.502;2023-05-29T14:48:09;5.35;;;2.47;;
13981;SDS011;7065;50.880;5.502;2023-05-29T14:50:35;6.80;;;3.15;;
13981;SDS011;7065;50.880;5.502;2023-05-29T14:53:02;4.03;;;2.55;;
13981;SDS011;7065;50.880;5.502;2023-05-29T14:55:28;5.82;;;2.90;;
13981;SDS011;7065;50.880;5.502;2023-05-29T14:57:57;5.43;;;2.65;;
13981;SDS011;7065;50.880;5.502;2023-05-29T15:00:23;4.47;;;2.70;;
13981;SDS011;7065;50.880;5.502;2023-05-29T15:02:48;5.80;;;2.42;;
13981;SDS011;7065;50.880;5.502;2023-05-29T15:05:14;5.47;;;2.90;;
13981;SDS011;7065;50.880;5.502;2023-05-29T15:07:40;5.47;;;2.70;;
13981;SDS011;7065;50.880;5.502;2023-05-29T15:10:06;6.40;;;2.67;;
13981;SDS011;7065;50.880;5.502;2023-05-29T15:12:32;7.78;;;2.83;;
13981;SDS011;7065;50.880;5.502;2023-05-29T15:14:57;4.63;;;2.78;;
13981;SDS011;7065;50.880;5.502;2023-05-29T15:17:24;6.57;;;2.60;;
13981;SDS011;7065;50.880;5.502;2023-05-29T15:19:49;7.57;;;2.90;;
13981;SDS011;7065;50.880;5.502;2023-05-29T15:22:17;9.32;;;2.95;;
13981;SDS011;7065;50.880;5.502;2023-05-29T15:24:42;6.50;;;2.70;;
13981;SDS011;7065;50.880;5.502;2023-05-29T15:27:08;7.85;;;3.03;;